createdAt,value
2018-11-29T00:02:27.745Z,90.48
2018-11-29T00:05:12.819Z,90.73
2018-11-29T00:07:56.417Z,90.57
2018-11-29T00:10:25.592Z,90.82
2018-11-29T00:12:54.751Z,90.30
2018-11-29T00:15:23.953Z,90.83
2018-11-29T00:17:53.505Z,90.90
2018-11-29T00:20:23.615Z,90.79
2018-11-29T00:22:52.584Z,90.84
2018-11-29T00:25:21.749Z,90.54
2018-11-29T00:27:50.677Z,90.69
2018-11-29T00:30:19.663Z,90.75
2018-11-29T00:32:48.423Z,90.62
2018-11-29T00:35:17.438Z,90.64
2018-11-29T00:37:46.433Z,91.03
2018-11-29T00:40:15.197Z,91.10
2018-11-29T00:42:44.776Z,90.83
2018-11-29T00:45:13.489Z,90.44
2018-11-29T00:47:42.698Z,90.73
2018-11-29T00:50:11.633Z,90.70
2018-11-29T00:52:40.804Z,90.74
2018-11-29T00:55:10.575Z,90.72
2018-11-29T00:57:39.312Z,90.58
2018-11-29T01:00:07.996Z,90.81
2018-11-29T01:02:37.155Z,90.78
2018-11-29T01:05:06.108Z,90.36
2018-11-29T01:07:35.035Z,90.38
2018-11-29T01:10:03.738Z,90.17
2018-11-29T01:12:33.005Z,90.48
2018-11-29T01:15:02.293Z,90.57
2018-11-29T01:17:31.775Z,90.42
2018-11-29T01:20:01.072Z,90.55
2018-11-29T01:22:30.331Z,90.45
2018-11-29T01:24:59.811Z,90.74
2018-11-29T01:27:29.128Z,90.52
2018-11-29T01:29:58.412Z,90.46
2018-11-29T01:32:28.059Z,90.36
2018-11-29T01:34:57.341Z,90.38
2018-11-29T01:37:26.898Z,90.47
2018-11-29T01:39:56.177Z,90.59
2018-11-29T01:42:25.452Z,90.79
2018-11-29T01:44:54.832Z,90.81
2018-11-29T01:47:24.112Z,91.02
2018-11-29T01:49:53.367Z,91.28
2018-11-29T01:52:22.966Z,91.17
2018-11-29T01:54:53.123Z,91.20
2018-11-29T01:57:22.399Z,91.07
2018-11-29T01:59:51.856Z,91.39
2018-11-29T02:02:20.964Z,91.19
2018-11-29T02:04:50.227Z,91.05
2018-11-29T02:07:19.503Z,90.96
2018-11-29T02:09:48.780Z,90.60
2018-11-29T02:12:19.308Z,90.52
2018-11-29T02:14:49.391Z,90.57
2018-11-29T02:17:18.964Z,90.49
2018-11-29T02:19:49.013Z,89.97
2018-11-29T02:22:18.283Z,90.21
2018-11-29T02:24:47.617Z,90.13
2018-11-29T02:27:16.906Z,89.77
2018-11-29T02:29:46.022Z,90.15
2018-11-29T02:32:15.298Z,89.85
2018-11-29T02:34:44.563Z,89.80
2018-11-29T02:37:14.135Z,89.93
2018-11-29T02:45:36.139Z,89.93
2018-11-29T02:48:05.171Z,89.84
2018-11-29T02:50:34.449Z,90.01
2018-11-29T02:53:03.714Z,90.10
2018-11-29T02:55:33.703Z,90.16
2018-11-29T02:58:03.256Z,90.09
2018-11-29T03:00:32.531Z,90.53
2018-11-29T03:03:02.106Z,90.47
2018-11-29T03:05:31.385Z,91.04
2018-11-29T03:08:00.643Z,91.33
2018-11-29T03:10:30.221Z,91.31
2018-11-29T03:12:59.491Z,91.19
2018-11-29T03:15:28.769Z,91.22
2018-11-29T03:17:58.229Z,91.05
2018-11-29T03:20:27.971Z,91.14
2018-11-29T03:22:57.706Z,90.90
2018-11-29T03:25:27.262Z,91.29
2018-11-29T03:27:56.557Z,91.44
2018-11-29T03:30:26.107Z,91.30
2018-11-29T03:32:55.372Z,91.36
2018-11-29T03:35:24.940Z,91.03
2018-11-29T03:37:54.376Z,91.14
2018-11-29T03:40:23.330Z,91.02
2018-11-29T03:42:52.785Z,91.17
2018-11-29T03:45:22.216Z,91.52
2018-11-29T03:47:51.484Z,91.81
2018-11-29T03:50:20.886Z,91.45
2018-11-29T03:52:50.417Z,91.74
2018-11-29T03:55:19.880Z,91.27
2018-11-29T03:57:49.365Z,91.27
2018-11-29T04:00:18.330Z,91.00
2018-11-29T04:02:47.756Z,91.17
2018-11-29T04:05:17.264Z,90.74
2018-11-29T04:07:46.405Z,90.41
2018-11-29T04:10:15.672Z,90.37
2018-11-29T04:12:44.899Z,89.82
2018-11-29T04:15:13.670Z,89.92
2018-11-29T04:17:42.610Z,89.91
2018-11-29T04:20:11.321Z,89.82
2018-11-29T04:22:40.827Z,89.85
2018-11-29T04:25:10.888Z,89.56
2018-11-29T04:27:40.425Z,89.58
2018-11-29T04:30:09.364Z,89.47
2018-11-29T04:32:38.633Z,90.02
2018-11-29T04:35:07.347Z,89.73
2018-11-29T04:37:37.476Z,89.63
2018-11-29T04:40:06.608Z,89.58
2018-11-29T04:42:35.870Z,89.86
2018-11-29T04:45:04.881Z,90.58
2018-11-29T04:47:34.171Z,90.60
2018-11-29T04:50:03.214Z,90.95
2018-11-29T04:52:32.188Z,90.96
2018-11-29T04:55:01.518Z,91.08
2018-11-29T04:57:30.956Z,91.30
2018-11-29T05:00:00.534Z,90.79
2018-11-29T05:02:29.824Z,90.97
2018-11-29T05:04:59.092Z,91.25
2018-11-29T05:07:28.446Z,91.08
2018-11-29T05:09:57.715Z,91.57
2018-11-29T05:12:26.994Z,91.51
2018-11-29T05:14:56.551Z,92.03
2018-11-29T05:17:25.815Z,92.04
2018-11-29T05:19:55.083Z,92.15
2018-11-29T05:22:24.657Z,92.54
2018-11-29T05:24:53.920Z,92.88
2018-11-29T05:27:23.496Z,93.15
2018-11-29T05:29:52.763Z,93.09
2018-11-29T05:32:22.024Z,93.06
2018-11-29T05:34:51.308Z,92.90
2018-11-29T05:37:20.875Z,93.28
2018-11-29T05:39:50.432Z,93.02
2018-11-29T05:42:20.123Z,93.54
2018-11-29T05:44:49.672Z,93.14
2018-11-29T05:47:19.858Z,93.31
2018-11-29T05:49:49.636Z,93.27
2018-11-29T05:52:18.697Z,93.16
2018-11-29T05:54:47.978Z,92.75
2018-11-29T05:57:17.260Z,92.34
2018-11-29T05:59:46.765Z,92.71
2018-11-29T06:02:15.704Z,92.25
2018-11-29T06:04:44.985Z,91.97
2018-11-29T06:07:14.547Z,91.70
2018-11-29T06:09:44.487Z,91.41
2018-11-29T06:12:13.908Z,91.76
2018-11-29T06:14:43.180Z,90.88
2018-11-29T06:17:12.743Z,91.48
2018-11-29T06:19:41.780Z,91.23
2018-11-29T06:22:11.991Z,91.01
2018-11-29T06:24:41.556Z,91.48
2018-11-29T06:27:12.500Z,91.53
2018-11-29T06:29:41.864Z,91.76
2018-11-29T06:32:12.073Z,91.54
2018-11-29T06:34:41.306Z,91.85
2018-11-29T06:37:12.052Z,92.21
2018-11-29T06:39:41.315Z,92.45
2018-11-29T06:42:12.083Z,92.36
2018-11-29T06:44:41.360Z,92.82
2018-11-29T06:47:12.216Z,92.67
2018-11-29T06:49:41.493Z,92.90
2018-11-29T06:52:12.069Z,92.79
2018-11-29T06:54:41.330Z,92.83
2018-11-29T06:57:12.092Z,92.73
2018-11-29T06:59:41.357Z,92.83
2018-11-29T07:02:10.512Z,92.65
2018-11-29T07:04:39.804Z,92.72
2018-11-29T07:07:09.135Z,92.63
2018-11-29T07:09:38.408Z,92.74
2018-11-29T07:12:07.651Z,92.05
2018-11-29T07:14:36.981Z,92.22
2018-11-29T07:17:07.248Z,91.72
2018-11-29T07:19:36.860Z,91.53
2018-11-29T07:22:05.801Z,91.31
2018-11-29T07:24:35.069Z,91.44
2018-11-29T07:27:04.072Z,91.19
2018-11-29T07:29:33.335Z,90.62
2018-11-29T07:32:02.916Z,90.75
2018-11-29T07:34:32.188Z,90.23
2018-11-29T07:37:02.730Z,90.34
2018-11-29T07:39:31.992Z,90.49
2018-11-29T07:42:01.071Z,89.93
2018-11-29T07:44:30.112Z,89.88
2018-11-29T07:46:59.380Z,89.96
2018-11-29T07:49:28.870Z,89.63
2018-11-29T07:51:57.808Z,89.56
2018-11-29T07:54:27.383Z,90.18
2018-11-29T07:56:56.935Z,90.25
2018-11-29T07:59:26.232Z,90.13
2018-11-29T08:01:55.184Z,89.81
2018-11-29T08:04:24.446Z,89.96
2018-11-29T08:06:53.958Z,89.88
2018-11-29T08:09:23.373Z,90.12
2018-11-29T08:11:52.934Z,90.21
2018-11-29T08:14:22.213Z,90.38
2018-11-29T08:16:51.483Z,89.75
2018-11-29T08:19:21.057Z,89.38
2018-11-29T08:21:50.331Z,89.13
2018-11-29T08:24:20.780Z,89.56
2018-11-29T08:26:50.107Z,90.15
2018-11-29T08:29:19.937Z,89.90
2018-11-29T08:31:49.202Z,89.87
2018-11-29T08:34:18.248Z,89.43
2018-11-29T08:36:47.521Z,89.58
2018-11-29T08:39:16.736Z,89.49
2018-11-29T08:41:47.154Z,89.56
2018-11-29T08:44:16.432Z,89.44
2018-11-29T08:46:46.083Z,89.41
2018-11-29T08:49:15.520Z,89.42
2018-11-29T08:51:45.007Z,89.68
2018-11-29T08:54:14.300Z,89.73
2018-11-29T08:56:43.235Z,89.91
2018-11-29T08:59:12.322Z,89.57
2018-11-29T09:01:41.583Z,90.10
2018-11-29T09:04:12.395Z,90.01
2018-11-29T09:06:42.075Z,90.20
2018-11-29T09:09:12.420Z,89.97
2018-11-29T09:11:41.688Z,89.68
2018-11-29T09:14:12.504Z,90.58
2018-11-29T09:16:42.066Z,90.62
2018-11-29T09:19:12.468Z,90.36
2018-11-29T09:21:42.024Z,90.43
2018-11-29T09:24:12.628Z,90.85
2018-11-29T09:26:42.231Z,91.17
2018-11-29T09:29:13.821Z,91.42
2018-11-29T09:31:41.948Z,91.20
2018-11-29T09:34:12.540Z,91.25
2018-11-29T09:36:41.771Z,91.35
2018-11-29T09:39:12.610Z,91.36
2018-11-29T09:41:42.115Z,91.64
2018-11-29T09:44:12.611Z,91.80
2018-11-29T09:46:42.151Z,91.20
2018-11-29T09:49:12.164Z,91.17
2018-11-29T09:51:41.423Z,91.38
2018-11-29T09:54:10.705Z,91.47
2018-11-29T09:56:40.284Z,91.60
2018-11-29T09:59:09.548Z,91.42
2018-11-29T10:01:38.784Z,90.91
2018-11-29T10:04:08.335Z,91.50
2018-11-29T10:06:37.621Z,91.28
2018-11-29T10:09:06.869Z,91.11
2018-11-29T10:11:36.269Z,92.00
2018-11-29T10:14:05.204Z,91.96
2018-11-29T10:16:34.319Z,92.04
2018-11-29T10:19:03.601Z,92.07
2018-11-29T10:21:33.156Z,92.12
2018-11-29T10:24:02.443Z,91.90
2018-11-29T10:26:31.714Z,91.99
2018-11-29T10:29:01.250Z,92.58
2018-11-29T10:31:30.249Z,93.06
2018-11-29T10:33:59.201Z,93.24
2018-11-29T10:36:28.587Z,92.65
2018-11-29T10:38:58.152Z,92.55
2018-11-29T10:41:27.514Z,92.48
2018-11-29T10:43:56.727Z,92.64
2018-11-29T10:46:26.290Z,92.27
2018-11-29T10:48:55.800Z,91.65
2018-11-29T10:51:25.359Z,91.46
2018-11-29T10:53:54.632Z,90.79
2018-11-29T10:56:23.916Z,90.17
2018-11-29T10:58:53.310Z,90.18
2018-11-29T11:01:22.690Z,89.60
2018-11-29T11:03:51.862Z,89.93
2018-11-29T11:06:21.587Z,89.09
2018-11-29T11:08:50.594Z,88.94
2018-11-29T11:11:21.603Z,89.06
2018-11-29T11:13:50.542Z,88.87
2018-11-29T11:16:19.475Z,88.98
2018-11-29T11:18:48.512Z,89.32
2018-11-29T11:21:17.545Z,88.86
2018-11-29T11:23:46.483Z,88.86
2018-11-29T11:26:16.047Z,88.50
2018-11-29T11:28:45.527Z,88.25
2018-11-29T11:31:14.799Z,88.68
2018-11-29T11:33:44.498Z,87.89
2018-11-29T11:36:14.067Z,87.67
2018-11-29T11:38:43.458Z,87.82
2018-11-29T11:41:12.830Z,87.63
2018-11-29T11:43:42.420Z,86.91
2018-11-29T11:46:12.831Z,87.23
2018-11-29T11:48:42.408Z,87.07
2018-11-29T11:51:12.792Z,87.32
2018-11-29T11:53:42.358Z,87.34
2018-11-29T11:56:12.792Z,87.42
2018-11-29T11:58:42.464Z,87.12
2018-11-29T12:01:12.731Z,87.15
2018-11-29T12:03:42.008Z,86.75
2018-11-29T12:06:12.891Z,86.27
2018-11-29T12:08:42.478Z,86.37
2018-11-29T12:11:12.859Z,86.67
2018-11-29T12:13:42.478Z,86.81
2018-11-29T12:16:12.832Z,86.91
2018-11-29T12:18:41.779Z,86.43
2018-11-29T12:21:11.061Z,87.02
2018-11-29T12:23:40.052Z,86.67
2018-11-29T12:26:10.088Z,86.29
2018-11-29T12:28:38.799Z,86.41
2018-11-29T12:31:07.734Z,86.44
2018-11-29T12:33:37.058Z,85.65
2018-11-29T12:36:06.620Z,86.01
2018-11-29T12:38:35.882Z,86.30
2018-11-29T12:41:04.886Z,85.77
2018-11-29T12:43:34.552Z,86.24
2018-11-29T12:46:03.833Z,86.20
2018-11-29T12:48:32.824Z,85.71
2018-11-29T12:51:02.101Z,85.95
2018-11-29T12:53:31.731Z,86.21
2018-11-29T12:56:01.193Z,86.07
2018-11-29T12:58:30.577Z,85.99
2018-11-29T13:00:59.846Z,85.78
2018-11-29T13:03:29.120Z,85.76
2018-11-29T13:05:58.690Z,85.82
2018-11-29T13:08:27.964Z,85.69
2018-11-29T13:10:57.528Z,85.95
2018-11-29T13:13:27.609Z,85.85
2018-11-29T13:15:56.654Z,85.73
2018-11-29T13:18:26.001Z,85.41
2018-11-29T13:20:54.700Z,85.04
2018-11-29T13:23:24.280Z,85.60
2018-11-29T13:25:53.780Z,85.49
2018-11-29T13:28:23.363Z,85.32
2018-11-29T13:30:52.891Z,85.30
2018-11-29T13:33:21.720Z,85.47
2018-11-29T13:35:51.497Z,85.33
2018-11-29T13:38:20.992Z,85.55
2018-11-29T13:40:51.079Z,85.32
2018-11-29T13:43:19.896Z,85.16
2018-11-29T13:45:49.391Z,85.34
2018-11-29T13:48:19.192Z,85.27
2018-11-29T13:50:48.803Z,85.20
2018-11-29T13:53:18.015Z,85.21
2018-11-29T13:55:47.411Z,85.15
2018-11-29T13:58:16.972Z,85.04
2018-11-29T14:00:47.258Z,84.92
2018-11-29T14:03:16.247Z,85.18
2018-11-29T14:05:45.756Z,84.64
2018-11-29T14:08:14.752Z,84.65
2018-11-29T14:10:43.691Z,84.93
2018-11-29T14:13:13.198Z,84.81
2018-11-29T14:15:42.470Z,84.63
2018-11-29T14:18:13.260Z,84.61
2018-11-29T14:20:42.465Z,84.14
2018-11-29T14:23:13.116Z,84.42
2018-11-29T14:25:42.679Z,84.18
2018-11-29T14:28:14.046Z,83.91
2018-11-29T14:30:42.748Z,84.40
2018-11-29T14:33:13.983Z,84.48
2018-11-29T14:35:43.272Z,84.59
2018-11-29T14:38:13.260Z,84.40
2018-11-29T14:40:44.799Z,84.33
2018-11-29T14:43:14.372Z,84.71
2018-11-29T14:45:43.936Z,84.58
2018-11-29T14:48:13.432Z,84.46
2018-11-29T14:50:42.841Z,85.12
2018-11-29T14:53:12.922Z,85.14
2018-11-29T14:55:41.866Z,84.44
2018-11-29T14:58:10.553Z,84.58
2018-11-29T15:00:39.798Z,84.87
2018-11-29T15:03:09.147Z,85.35
2018-11-29T15:05:38.371Z,85.17
2018-11-29T15:08:08.575Z,85.31
2018-11-29T15:10:36.696Z,85.94
2018-11-29T15:13:05.728Z,86.02
2018-11-29T15:15:35.076Z,86.32
2018-11-29T15:18:04.348Z,86.72
2018-11-29T15:20:33.916Z,87.33
2018-11-29T15:23:03.033Z,87.81
2018-11-29T15:25:33.137Z,87.75
2018-11-29T15:28:01.575Z,88.73
2018-11-29T15:30:30.807Z,89.14
2018-11-29T15:33:00.084Z,89.82
2018-11-29T15:35:29.482Z,89.59
2018-11-29T15:37:58.497Z,90.29
2018-11-29T15:40:28.361Z,90.11
2018-11-29T15:42:57.580Z,90.04
2018-11-29T15:45:26.817Z,90.20
2018-11-29T15:47:56.126Z,90.32
2018-11-29T15:50:25.532Z,90.56
2018-11-29T15:52:54.808Z,90.29
2018-11-29T15:55:24.559Z,90.53
2018-11-29T15:57:53.548Z,89.85
2018-11-29T16:00:22.864Z,90.50
2018-11-29T16:02:52.110Z,90.34
2018-11-29T16:05:21.551Z,89.93
2018-11-29T16:07:50.797Z,90.15
2018-11-29T16:10:20.354Z,90.45
2018-11-29T16:12:49.325Z,90.34
2018-11-29T16:15:18.247Z,90.03
2018-11-29T16:17:47.213Z,90.36
2018-11-29T16:20:17.150Z,90.68
2018-11-29T16:22:46.060Z,90.19
2018-11-29T16:25:15.436Z,89.91
2018-11-29T16:27:44.723Z,90.12
2018-11-29T16:30:14.297Z,89.88
2018-11-29T16:32:43.621Z,89.19
2018-11-29T16:35:13.647Z,89.98
2018-11-29T16:37:42.881Z,90.21
2018-11-29T16:40:13.242Z,90.06
2018-11-29T16:42:42.768Z,89.77
2018-11-29T16:45:13.283Z,89.43
2018-11-29T16:47:42.595Z,89.37
2018-11-29T16:50:11.518Z,88.89
2018-11-29T16:52:40.462Z,88.73
2018-11-29T16:55:09.838Z,88.88
2018-11-29T16:57:39.288Z,87.97
2018-11-29T17:00:07.743Z,87.91
2018-11-29T17:02:36.742Z,87.30
2018-11-29T17:05:05.720Z,87.08
2018-11-29T17:07:35.352Z,86.76
2018-11-29T17:10:04.047Z,85.82
2018-11-29T17:12:33.035Z,85.58
2018-11-29T17:15:02.487Z,85.73
2018-11-29T17:17:31.760Z,85.77
2018-11-29T17:20:01.384Z,85.45
2018-11-29T17:22:30.698Z,85.05
2018-11-29T17:25:00.268Z,84.86
2018-11-29T17:27:29.707Z,84.63
2018-11-29T17:29:58.985Z,84.71
2018-11-29T17:32:28.539Z,85.06
2018-11-29T17:34:57.868Z,84.77
2018-11-29T17:37:27.640Z,85.08
2018-11-29T17:39:56.919Z,85.14
2018-11-29T17:42:26.743Z,85.19
2018-11-29T17:44:56.008Z,84.93
2018-11-29T17:47:25.640Z,85.09
2018-11-29T17:49:54.930Z,85.04
2018-11-29T17:55:15.750Z,84.73
2018-11-29T17:57:45.755Z,84.89
2018-11-29T18:00:15.498Z,84.53
2018-11-29T18:02:44.797Z,84.73
2018-11-29T18:05:14.387Z,84.69
2018-11-29T18:07:43.336Z,84.43
2018-11-29T18:10:13.437Z,84.23
2018-11-29T18:12:42.435Z,83.75
2018-11-29T18:15:13.245Z,83.92
2018-11-29T18:17:42.604Z,83.14
2018-11-29T18:20:11.872Z,82.93
2018-11-29T18:22:40.843Z,82.89
2018-11-29T18:25:09.842Z,82.68
2018-11-29T18:27:38.786Z,82.14
2018-11-29T18:30:07.959Z,82.42
2018-11-29T18:32:37.558Z,81.53
2018-11-29T18:35:06.265Z,81.07
2018-11-29T18:37:35.840Z,80.47
2018-11-29T18:40:05.527Z,80.69
2018-11-29T18:42:34.983Z,79.73
2018-11-29T18:45:03.983Z,79.72
2018-11-29T18:47:33.516Z,79.86
2018-11-29T18:50:02.783Z,80.07
2018-11-29T18:52:32.529Z,79.52
2018-11-29T18:55:01.811Z,79.59
2018-11-29T18:57:32.110Z,79.31
2018-11-29T19:00:01.736Z,79.21
2018-11-29T19:02:31.142Z,79.15
2018-11-29T19:05:00.622Z,81.90
2018-11-29T19:07:29.920Z,81.33
2018-11-29T19:09:59.496Z,79.22
2018-11-29T19:12:29.083Z,78.92
2018-11-29T19:14:58.643Z,79.05
2018-11-29T19:17:28.108Z,78.69
2018-11-29T19:19:57.693Z,78.74
2018-11-29T19:22:26.977Z,78.24
2018-11-29T19:24:56.531Z,78.63
2018-11-29T19:27:25.933Z,78.61
2018-11-29T19:29:55.214Z,78.56
2018-11-29T19:32:24.763Z,78.14
2018-11-29T19:34:54.062Z,78.16
2018-11-29T19:37:23.627Z,77.75
2018-11-29T19:39:52.684Z,76.79
2018-11-29T19:42:21.995Z,76.58
2018-11-29T19:44:51.344Z,76.35
2018-11-29T19:47:20.830Z,76.37
2018-11-29T19:49:50.311Z,76.58
2018-11-29T19:52:19.581Z,75.90
2018-11-29T19:54:48.882Z,76.07
2018-11-29T19:57:18.161Z,76.31
2018-11-29T19:59:48.144Z,76.25
2018-11-29T20:02:17.697Z,76.15
2018-11-29T20:04:46.984Z,75.89
2018-11-29T20:07:16.548Z,75.59
2018-11-29T20:09:45.864Z,75.85
2018-11-29T20:12:15.623Z,75.97
2018-11-29T20:14:44.964Z,76.20
2018-11-29T20:17:14.268Z,75.79
2018-11-29T20:19:43.692Z,75.43
2018-11-29T20:22:14.123Z,76.00
2018-11-29T20:24:43.680Z,75.71
2018-11-29T20:27:14.600Z,75.93
2018-11-29T20:29:44.625Z,75.88
2018-11-29T20:32:14.239Z,76.22
2018-11-29T20:34:43.519Z,75.14
2018-11-29T20:37:14.430Z,75.10
2018-11-29T20:39:43.812Z,75.17
2018-11-29T20:42:14.091Z,75.05
2018-11-29T20:44:43.379Z,74.82
2018-11-29T20:47:14.457Z,74.98
2018-11-29T20:49:43.887Z,74.99
2018-11-29T20:52:14.152Z,74.75
2018-11-29T20:54:43.751Z,75.18
2018-11-29T20:57:13.794Z,74.99
2018-11-29T20:59:43.079Z,74.73
2018-11-29T21:02:12.384Z,74.87
2018-11-29T21:04:41.972Z,74.66
2018-11-29T21:07:10.979Z,74.68
2018-11-29T21:09:41.009Z,74.81
2018-11-29T21:12:10.296Z,74.67
2018-11-29T21:14:40.208Z,74.45
2018-11-29T21:17:09.508Z,75.02
2018-11-29T21:19:38.537Z,74.88
2018-11-29T21:22:07.814Z,74.61
2018-11-29T21:24:37.261Z,74.95
2018-11-29T21:27:06.488Z,74.65
2018-11-29T21:29:37.020Z,74.75
2018-11-29T21:32:06.277Z,74.45
2018-11-29T21:34:35.853Z,74.68
2018-11-29T21:37:05.134Z,74.49
2018-11-29T21:39:34.468Z,74.87
2018-11-29T21:42:03.672Z,75.21
2018-11-29T21:44:32.939Z,75.21
2018-11-29T21:47:02.217Z,74.72
2018-11-29T21:49:32.676Z,75.21
2018-11-29T21:52:02.108Z,75.28
2018-11-29T21:54:31.283Z,75.71
2018-11-29T21:57:00.297Z,75.84
2018-11-29T21:59:29.515Z,74.85
2018-11-29T22:01:58.985Z,75.17
2018-11-29T22:04:28.369Z,74.89
2018-11-29T22:06:57.372Z,74.64
2018-11-29T22:09:27.093Z,74.47
2018-11-29T22:11:56.397Z,74.58
2018-11-29T22:14:26.269Z,74.67
2018-11-29T22:16:55.559Z,74.44
2018-11-29T22:19:25.113Z,74.34
2018-11-29T22:21:54.392Z,74.46
2018-11-29T22:24:23.944Z,74.17
2018-11-29T22:26:53.273Z,74.23
2018-11-29T22:29:22.545Z,74.21
2018-11-29T22:31:52.114Z,74.40
2018-11-29T22:34:21.447Z,74.62
2018-11-29T22:36:51.216Z,74.48
2018-11-29T22:39:20.452Z,74.55
2018-11-29T22:41:50.066Z,74.32
2018-11-29T22:44:20.800Z,74.49
2018-11-29T22:46:49.191Z,74.43
2018-11-29T22:49:18.477Z,74.27
2018-11-29T22:51:48.033Z,74.03
2018-11-29T22:54:18.108Z,74.56
2018-11-29T22:56:47.380Z,74.69
2018-11-29T22:59:16.666Z,75.01
2018-11-29T23:01:46.772Z,74.56
2018-11-29T23:04:16.669Z,74.95
2018-11-29T23:06:45.773Z,75.09
2018-11-29T23:09:15.437Z,75.14
2018-11-29T23:11:45.035Z,75.25
2018-11-29T23:14:14.621Z,75.07
2018-11-29T23:16:44.195Z,75.21
2018-11-29T23:19:14.659Z,75.26
2018-11-29T23:21:44.186Z,75.79
2018-11-29T23:24:14.483Z,75.56
2018-11-29T23:26:44.210Z,75.44
2018-11-29T23:29:15.019Z,75.08
2018-11-29T23:31:44.283Z,75.41
2018-11-29T23:34:15.155Z,74.91
2018-11-29T23:36:44.427Z,75.51
2018-11-29T23:39:14.567Z,75.02
2018-11-29T23:41:46.178Z,75.07
2018-11-29T23:44:15.734Z,75.17
2018-11-29T23:46:45.319Z,74.98
2018-11-29T23:49:14.737Z,74.99
2018-11-29T23:51:44.027Z,74.84
2018-11-29T23:54:15.808Z,74.02
2018-11-29T23:56:45.374Z,74.33
2018-11-29T23:59:14.700Z,74.32
